Clyde, Utah
Current Conditions -  °F | °C
As of 6:55 AM on Thursday 23 Oct 2014 (Local Time) from KPVU Reporting Station
Clear Clear  
Wind Chill: 34°   Ceiling: Unl
Heat Index: 39°   Visibility: 10mi
Dew Point: 28°   Wind: 8mph
Humidity: 65%   Direction: 120°ESE
Pressure: 30.17"   Gusts: NA
Location:  40.2724°N, 111.717°W
Report Text: KPVU 231255Z 12007KT 10SM CLR 04/M02 A3017 RMK AO1
Loading
Personal Weather Stations






























Interactive Weather Map
Tropical Storm Tracking
New forecast layout! Learn more

10-Day Weather Forecast

Advertisements
Track Severe Weather on mobile